< < Back
Terminal Aerodrome Forecast


Current Version              Previous Versions:   1  2  3  4  5  6  7  8  9  

Terminal Aerodrome Forecast

902
FTUS44 KBMX 042300
TAFANB
TAF
KANB 042323Z 0500/0524 22009KT P6SM VCSH SCT020 OVC040
     FM050400 34007KT 4SM -RA OVC015
     FM050800 34006KT 4SM -RA OVC007
     FM052200 35009KT P6SM OVC015=

Latest METAR

867
SAUS70 KWBC 050400 RRB
MTRANB
METAR KANB 050353Z AUTO 32004KT 10SM BKN029 OVC110 19/18 A2991 RMK AO2
SLP124 T01940178


USA.gov is the U.S. government's official web portal to all federal, state and local government web resources and services.